Time;durP1;ratioP1;P1;durP2;ratioP2;P2;SDS_P1;SDS_P2;PMS_P1;PMS_P2;Temp;Humidity;BMP_temperature;BMP_pressure;BME280_temperature;BME280_humidity;BME280_pressure;Samples;Min_cycle;Max_cycle;Signal;HPM_P1;HPM_P2
2023/05/12 00:01:42;;;;;;;13.37;11.00;;;13.40;99.90;;;;;;5049979;28;20440;-71
2023/05/12 00:04:27;;;;;;;16.83;11.20;;;13.30;99.90;;;;;;5049503;28;20451;-73
2023/05/12 00:07:13;;;;;;;13.43;10.73;;;13.40;99.90;;;;;;5049304;28;20507;-71
2023/05/12 00:09:58;;;;;;;17.70;11.73;;;13.40;99.90;;;;;;5041490;28;20448;-72
2023/05/12 00:12:43;;;;;;;16.80;11.10;;;13.40;99.90;;;;;;5051397;28;20423;-73
2023/05/12 00:15:30;;;;;;;12.73;10.33;;;13.30;99.90;;;;;;5059012;28;20455;-72
2023/05/12 00:18:16;;;;;;;16.13;12.17;;;13.40;99.90;;;;;;5051860;28;21052;-72
2023/05/12 00:21:01;;;;;;;19.93;11.53;;;13.40;99.90;;;;;;5055421;28;20448;-72
2023/05/12 00:23:47;;;;;;;19.90;12.23;;;13.40;99.90;;;;;;5045907;28;20533;-72
2023/05/12 00:26:32;;;;;;;14.07;10.80;;;13.40;99.90;;;;;;5043056;28;20460;-72
2023/05/12 00:29:18;;;;;;;12.80;10.60;;;13.40;99.90;;;;;;5051730;28;20426;-72
2023/05/12 00:32:05;;;;;;;16.37;11.03;;;13.40;99.90;;;;;;5049212;28;20403;-71
2023/05/12 00:34:53;;;;;;;14.53;12.50;;;13.50;99.90;;;;;;5050194;28;20790;-72
2023/05/12 00:37:38;;;;;;;18.30;13.00;;;13.50;99.90;;;;;;5048002;28;20928;-75
2023/05/12 00:40:23;;;;;;;14.60;10.50;;;13.50;99.90;;;;;;5052474;28;20417;-73
2023/05/12 00:43:09;;;;;;;14.53;11.13;;;13.50;99.90;;;;;;5047395;28;20602;-72
2023/05/12 00:45:54;;;;;;;13.10;10.40;;;13.40;99.90;;;;;;5049193;28;20584;-72
2023/05/12 00:48:41;;;;;;;18.30;13.93;;;13.40;99.90;;;;;;5050310;28;20488;-71
2023/05/12 00:51:27;;;;;;;15.60;12.63;;;13.40;99.90;;;;;;5044571;28;21033;-71
2023/05/12 00:54:13;;;;;;;14.60;11.20;;;13.40;99.90;;;;;;5050906;28;20419;-71
2023/05/12 00:56:59;;;;;;;13.77;11.20;;;13.40;99.90;;;;;;5045885;28;20537;-72
2023/05/12 00:59:44;;;;;;;18.33;12.00;;;13.30;99.90;;;;;;5047533;28;20440;-72
2023/05/12 01:02:30;;;;;;;20.70;13.17;;;13.40;99.90;;;;;;5042172;28;20524;-73
2023/05/12 01:05:17;;;;;;;19.30;11.57;;;13.30;99.90;;;;;;5047655;28;20535;-71
2023/05/12 01:08:03;;;;;;;13.43;11.40;;;13.40;99.90;;;;;;5047410;28;20517;-71
2023/05/12 01:10:49;;;;;;;14.40;11.30;;;13.40;99.90;;;;;;5047439;28;21067;-73
2023/05/12 01:13:34;;;;;;;17.50;11.80;;;13.40;99.90;;;;;;5048597;28;20432;-72
2023/05/12 01:16:26;;;;;;;13.63;11.33;;;13.40;99.90;;;;;;5048916;28;20435;-72
2023/05/12 01:19:39;;;;;;;14.63;11.97;;;13.40;99.90;;;;;;5046426;28;20959;-72
2023/05/12 01:22:30;;;;;;;15.57;11.23;;;13.40;99.90;;;;;;5052531;28;20492;-71
2023/05/12 01:25:16;;;;;;;15.23;12.23;;;13.40;99.90;;;;;;5045177;28;20420;-74
2023/05/12 01:28:04;;;;;;;16.80;13.23;;;13.30;99.90;;;;;;5042245;28;20475;-72
2023/05/12 01:30:50;;;;;;;18.67;11.90;;;13.30;99.90;;;;;;5047485;28;20816;-71
2023/05/12 01:33:36;;;;;;;18.70;13.40;;;13.30;99.90;;;;;;5046164;28;20448;-71
2023/05/12 01:36:22;;;;;;;19.40;12.60;;;13.30;99.90;;;;;;5049317;28;21855;-71
2023/05/12 01:39:08;;;;;;;15.33;12.40;;;13.30;99.90;;;;;;5055687;28;20444;-73
2023/05/12 01:41:53;;;;;;;14.70;11.67;;;13.40;99.90;;;;;;5045300;28;20457;-71
2023/05/12 01:44:40;;;;;;;14.73;11.53;;;13.40;99.90;;;;;;5046391;28;20477;-73
2023/05/12 01:47:26;;;;;;;17.30;11.40;;;13.40;99.90;;;;;;5051711;28;20451;-71
2023/05/12 01:50:11;;;;;;;13.83;11.40;;;13.40;99.90;;;;;;5049659;28;20436;-73
2023/05/12 01:52:57;;;;;;;16.27;12.10;;;13.50;99.90;;;;;;5046900;28;20594;-71
2023/05/12 01:55:42;;;;;;;13.83;11.07;;;13.40;99.90;;;;;;5043079;28;20558;-71
2023/05/12 01:58:28;;;;;;;17.27;13.43;;;13.50;99.90;;;;;;5056079;28;20972;-72
2023/05/12 02:01:15;;;;;;;12.97;11.10;;;13.50;99.90;;;;;;5048228;28;21085;-71
2023/05/12 02:04:02;;;;;;;17.27;13.00;;;13.50;99.90;;;;;;5043739;28;20442;-71
2023/05/12 02:06:47;;;;;;;16.40;12.37;;;13.50;99.90;;;;;;5046209;28;20489;-71
2023/05/12 02:09:33;;;;;;;14.90;12.27;;;13.40;99.90;;;;;;5047040;28;20535;-71
2023/05/12 02:12:18;;;;;;;15.13;11.90;;;13.40;99.90;;;;;;5051215;28;20411;-72
2023/05/12 02:15:05;;;;;;;21.00;12.70;;;13.30;99.90;;;;;;5061049;28;20575;-71
2023/05/12 02:17:53;;;;;;;20.20;13.10;;;13.30;99.90;;;;;;5056962;28;20428;-71
2023/05/12 02:20:38;;;;;;;15.70;12.40;;;13.30;99.90;;;;;;5046404;28;20582;-74
2023/05/12 02:23:24;;;;;;;17.10;13.10;;;13.30;99.90;;;;;;5055172;28;20482;-71
2023/05/12 02:26:09;;;;;;;19.80;12.60;;;13.30;99.90;;;;;;5048505;28;20439;-72
2023/05/12 02:28:55;;;;;;;15.70;12.07;;;13.30;99.90;;;;;;5044487;28;20595;-71
2023/05/12 02:31:40;;;;;;;15.53;12.17;;;13.30;99.90;;;;;;5047347;28;20953;-73
2023/05/12 02:34:27;;;;;;;16.67;13.00;;;13.30;99.90;;;;;;5036243;28;20565;-71
2023/05/12 02:37:13;;;;;;;18.90;11.93;;;13.40;99.90;;;;;;5044493;28;20455;-73
2023/05/12 02:39:59;;;;;;;19.40;14.50;;;13.40;99.90;;;;;;5044252;28;20419;-73
2023/05/12 02:42:44;;;;;;;16.40;12.23;;;13.40;99.90;;;;;;5045234;28;20495;-72
2023/05/12 02:45:30;;;;;;;16.57;12.10;;;13.30;99.90;;;;;;5045461;28;20821;-71
2023/05/12 02:48:15;;;;;;;24.00;13.10;;;13.30;99.90;;;;;;5049755;28;21076;-72
2023/05/12 02:51:02;;;;;;;15.27;11.93;;;13.40;99.90;;;;;;5050041;28;20413;-71
2023/05/12 02:53:48;;;;;;;20.57;12.00;;;13.40;99.90;;;;;;5047256;28;20489;-72
2023/05/12 02:56:33;;;;;;;18.37;12.60;;;13.30;99.90;;;;;;5044795;28;20471;-74
2023/05/12 02:59:19;;;;;;;15.97;11.83;;;13.30;99.90;;;;;;5049271;28;20410;-71
2023/05/12 03:02:05;;;;;;;15.03;11.40;;;13.30;99.90;;;;;;5048958;28;20453;-71
2023/05/12 03:04:50;;;;;;;19.17;12.50;;;13.30;99.90;;;;;;5051730;28;20415;-70
2023/05/12 03:07:37;;;;;;;17.03;12.30;;;13.30;99.90;;;;;;5057221;28;20471;-73
2023/05/12 03:10:23;;;;;;;15.00;11.50;;;13.30;99.90;;;;;;5047564;28;20409;-71
2023/05/12 03:13:08;;;;;;;15.50;10.93;;;13.20;99.90;;;;;;5045592;28;20507;-72
2023/05/12 03:15:54;;;;;;;14.17;10.57;;;13.20;99.90;;;;;;5045483;28;20530;-74
2023/05/12 03:18:39;;;;;;;23.43;9.93;;;13.30;99.90;;;;;;5047918;28;20440;-71
2023/05/12 03:21:25;;;;;;;15.90;10.30;;;13.30;99.90;;;;;;5045720;28;21010;-71
2023/05/12 03:24:12;;;;;;;19.97;9.33;;;13.40;99.90;;;;;;5048824;28;20540;-72
2023/05/12 03:26:58;;;;;;;17.10;10.67;;;13.40;99.90;;;;;;5048337;28;21122;-75
2023/05/12 03:29:43;;;;;;;13.40;10.80;;;13.40;99.90;;;;;;5048768;28;21830;-75
2023/05/12 03:32:29;;;;;;;13.20;10.17;;;13.30;99.90;;;;;;5046236;28;20426;-75
2023/05/12 03:35:14;;;;;;;16.40;11.47;;;13.30;99.90;;;;;;5040648;28;20588;-75
2023/05/12 03:38:00;;;;;;;15.10;10.93;;;13.20;99.90;;;;;;5048536;28;20487;-75
2023/05/12 03:40:51;;;;;;;17.97;11.80;;;13.20;99.90;;;;;;5041544;28;20448;-75
2023/05/12 03:43:36;;;;;;;15.60;11.47;;;13.20;99.90;;;;;;5043774;28;20432;-75
2023/05/12 03:46:22;;;;;;;16.53;11.07;;;13.20;99.90;;;;;;5044841;28;20474;-76
2023/05/12 03:49:08;;;;;;;17.60;9.90;;;13.10;99.90;;;;;;5045063;28;20510;-71
2023/05/12 03:51:54;;;;;;;13.17;10.70;;;13.10;99.90;;;;;;5049596;28;20510;-75
2023/05/12 03:54:39;;;;;;;14.67;9.23;;;13.10;99.90;;;;;;5041840;28;20666;-75
2023/05/12 03:57:26;;;;;;;12.00;8.53;;;13.10;99.90;;;;;;5051470;28;20464;-74
2023/05/12 04:00:13;;;;;;;10.50;5.37;;;13.10;99.90;;;;;;5048543;28;20472;-74
2023/05/12 04:02:59;;;;;;;5.80;4.53;;;13.20;99.90;;;;;;5050762;28;20444;-75
2023/05/12 04:05:44;;;;;;;11.37;4.40;;;13.20;99.90;;;;;;5045493;28;20806;-73
2023/05/12 04:08:30;;;;;;;4.80;3.63;;;13.10;99.90;;;;;;5047692;28;20894;-75
2023/05/12 04:11:15;;;;;;;5.07;3.80;;;13.10;99.90;;;;;;5051858;28;20564;-75
2023/05/12 04:14:02;;;;;;;5.10;3.83;;;13.20;99.90;;;;;;5044176;28;20554;-74
2023/05/12 04:16:48;;;;;;;9.30;4.00;;;13.20;99.90;;;;;;5046845;28;20469;-74
2023/05/12 04:19:33;;;;;;;5.10;4.20;;;13.10;99.90;;;;;;5043002;28;20599;-75
2023/05/12 04:22:19;;;;;;;7.87;3.43;;;13.10;99.90;;;;;;5046181;28;20466;-74
2023/05/12 04:25:05;;;;;;;4.60;3.43;;;13.10;99.90;;;;;;5045627;28;20420;-75
2023/05/12 04:27:50;;;;;;;4.70;3.07;;;13.00;99.90;;;;;;5042360;28;20973;-75
2023/05/12 04:30:39;;;;;;;11.97;3.63;;;13.00;99.90;;;;;;5045105;28;20963;-75
2023/05/12 04:33:24;;;;;;;18.33;5.80;;;13.00;99.90;;;;;;5044201;28;20531;-75
2023/05/12 04:36:12;;;;;;;9.30;3.73;;;13.00;99.90;;;;;;5051067;28;20460;-75
2023/05/12 04:38:58;;;;;;;4.50;3.70;;;13.00;99.90;;;;;;5039763;28;20473;-75
2023/05/12 04:41:43;;;;;;;5.03;3.70;;;13.00;99.90;;;;;;5049692;28;20933;-73
2023/05/12 04:44:29;;;;;;;6.30;4.10;;;13.10;99.90;;;;;;5045096;28;20505;-76
2023/05/12 04:47:15;;;;;;;6.47;4.80;;;13.00;99.90;;;;;;5046432;28;20447;-75
2023/05/12 04:50:01;;;;;;;6.43;4.80;;;13.00;99.90;;;;;;5046489;28;20793;-76
2023/05/12 04:52:46;;;;;;;8.83;3.73;;;13.00;99.90;;;;;;5042386;28;20791;-75
2023/05/12 04:55:32;;;;;;;6.53;3.43;;;13.00;99.90;;;;;;5046629;28;20481;-74
2023/05/12 04:58:18;;;;;;;5.10;3.33;;;13.00;99.90;;;;;;5046613;28;20578;-72
2023/05/12 05:01:03;;;;;;;11.57;3.53;;;13.10;99.90;;;;;;5043494;28;20448;-74
2023/05/12 05:03:50;;;;;;;4.30;3.57;;;13.10;99.90;;;;;;5041411;28;20431;-75
2023/05/12 05:06:35;;;;;;;6.00;3.40;;;13.20;99.90;;;;;;5043696;28;20472;-75
2023/05/12 05:09:21;;;;;;;8.03;3.23;;;13.20;99.90;;;;;;5043814;28;20448;-75
2023/05/12 05:12:07;;;;;;;5.47;3.20;;;13.20;99.90;;;;;;5044165;28;20523;-74
2023/05/12 05:14:52;;;;;;;9.17;3.90;;;13.20;99.90;;;;;;5043681;28;20457;-74
2023/05/12 05:17:38;;;;;;;5.47;4.07;;;13.20;99.90;;;;;;5047242;28;20461;-75
2023/05/12 05:20:27;;;;;;;6.40;3.40;;;13.20;99.90;;;;;;5046597;28;20573;-75
2023/05/12 05:23:12;;;;;;;5.80;3.30;;;13.10;99.90;;;;;;5038390;28;20433;-76
2023/05/12 05:25:58;;;;;;;4.17;3.30;;;13.20;99.90;;;;;;5051004;28;20448;-75
2023/05/12 05:28:43;;;;;;;5.80;3.70;;;13.30;99.90;;;;;;5045180;28;20439;-75
2023/05/12 05:31:29;;;;;;;4.60;3.23;;;13.30;99.90;;;;;;5046855;28;20445;-75
2023/05/12 05:34:15;;;;;;;3.20;2.63;;;13.30;99.90;;;;;;5039492;28;20443;-75
2023/05/12 05:37:02;;;;;;;3.20;2.40;;;13.40;99.90;;;;;;5045320;28;20593;-75
2023/05/12 05:39:47;;;;;;;5.30;2.43;;;13.40;99.90;;;;;;5045477;28;20438;-75
2023/05/12 05:42:32;;;;;;;3.20;2.50;;;13.50;99.90;;;;;;5048096;28;20540;-75
2023/05/12 05:45:18;;;;;;;3.40;2.70;;;13.50;99.90;;;;;;5043762;28;20422;-72
2023/05/12 05:48:04;;;;;;;3.30;2.37;;;13.60;99.90;;;;;;5044280;28;20490;-73
2023/05/12 05:50:51;;;;;;;4.43;2.17;;;13.60;99.90;;;;;;5043027;28;20803;-75
2023/05/12 05:53:38;;;;;;;2.77;2.10;;;13.70;99.90;;;;;;5042560;28;20942;-75
2023/05/12 05:56:23;;;;;;;2.30;2.00;;;13.70;99.90;;;;;;5044839;28;20460;-75
2023/05/12 05:59:09;;;;;;;6.43;2.00;;;13.80;99.90;;;;;;5043114;28;20432;-75
2023/05/12 06:01:55;;;;;;;2.53;1.90;;;13.80;99.90;;;;;;5046940;28;20989;-73
2023/05/12 06:04:40;;;;;;;3.83;2.40;;;13.90;99.90;;;;;;5044219;28;20446;-73
2023/05/12 06:07:26;;;;;;;2.30;2.10;;;13.90;99.90;;;;;;5048712;28;20439;-73
2023/05/12 06:10:13;;;;;;;2.30;1.90;;;13.90;99.90;;;;;;5044116;28;20456;-73
2023/05/12 06:12:58;;;;;;;3.70;2.33;;;13.90;99.90;;;;;;5042795;28;21148;-73
2023/05/12 06:15:44;;;;;;;2.30;1.73;;;13.90;99.90;;;;;;5038104;28;20861;-73
2023/05/12 06:18:29;;;;;;;12.90;2.10;;;13.90;99.90;;;;;;5046978;28;20441;-73
2023/05/12 06:21:15;;;;;;;4.93;2.37;;;13.90;99.90;;;;;;5047122;28;20416;-73
2023/05/12 06:24:00;;;;;;;2.73;1.90;;;13.90;99.90;;;;;;5042218;28;20827;-72
2023/05/12 06:26:47;;;;;;;3.43;2.00;;;13.90;99.90;;;;;;5034997;28;21551;-73
2023/05/12 06:29:33;;;;;;;10.00;2.30;;;13.80;99.90;;;;;;5043641;28;20471;-73
2023/05/12 06:32:19;;;;;;;3.47;2.37;;;13.80;99.90;;;;;;5043840;28;20535;-73
2023/05/12 06:35:05;;;;;;;3.20;2.80;;;13.80;99.90;;;;;;5053355;28;20588;-73
2023/05/12 06:37:51;;;;;;;3.90;3.20;;;13.80;99.90;;;;;;5053794;28;20422;-72
2023/05/12 06:40:36;;;;;;;4.23;3.70;;;13.70;99.90;;;;;;5046771;28;20558;-73
2023/05/12 06:43:23;;;;;;;4.90;4.40;;;13.70;99.90;;;;;;5040345;28;20424;-73
2023/05/12 06:46:09;;;;;;;9.00;5.37;;;13.70;99.90;;;;;;5050158;28;20714;-73
2023/05/12 06:48:55;;;;;;;8.83;6.37;;;13.70;99.90;;;;;;5052891;28;21072;-73
2023/05/12 06:51:40;;;;;;;8.10;6.73;;;13.60;99.90;;;;;;5050268;28;20857;-71
2023/05/12 06:54:25;;;;;;;6.87;6.03;;;13.60;99.90;;;;;;5042614;28;20449;-73
2023/05/12 06:57:11;;;;;;;7.37;5.70;;;13.60;99.90;;;;;;5051209;28;20439;-73
2023/05/12 06:59:57;;;;;;;7.07;6.33;;;13.60;99.90;;;;;;5044022;28;20789;-73
2023/05/12 07:02:43;;;;;;;7.30;6.60;;;13.50;99.90;;;;;;5044797;28;20437;-73
2023/05/12 07:05:28;;;;;;;11.03;7.33;;;13.50;99.90;;;;;;5047321;28;20812;-75
2023/05/12 07:08:14;;;;;;;12.43;7.90;;;13.60;99.90;;;;;;5048679;28;20430;-74
2023/05/12 07:10:59;;;;;;;9.40;6.33;;;13.60;99.90;;;;;;5046585;28;20639;-75
2023/05/12 07:13:46;;;;;;;7.47;6.77;;;13.60;99.90;;;;;;5046439;28;20415;-75
2023/05/12 07:16:32;;;;;;;8.07;7.27;;;13.60;99.90;;;;;;5048887;28;20444;-74
2023/05/12 07:19:18;;;;;;;9.00;7.70;;;13.60;99.90;;;;;;5050872;28;20448;-75
2023/05/12 07:22:04;;;;;;;8.33;7.43;;;13.60;99.90;;;;;;5048531;28;20453;-75
2023/05/12 07:24:49;;;;;;;8.97;8.07;;;13.60;99.90;;;;;;5046206;28;20462;-75
2023/05/12 07:27:35;;;;;;;14.80;7.17;;;13.60;99.90;;;;;;5045991;28;20451;-76
2023/05/12 07:30:21;;;;;;;8.33;7.40;;;13.60;99.90;;;;;;5044243;28;20445;-74
2023/05/12 07:33:08;;;;;;;11.70;7.40;;;13.70;99.90;;;;;;5045564;28;20453;-75
2023/05/12 07:35:53;;;;;;;7.70;7.00;;;13.70;99.90;;;;;;5050551;28;20463;-75
2023/05/12 07:38:39;;;;;;;8.33;7.53;;;13.80;99.90;;;;;;5055864;28;20857;-75
2023/05/12 07:41:24;;;;;;;9.10;7.37;;;13.90;99.90;;;;;;5047589;28;20969;-74
2023/05/12 07:44:11;;;;;;;11.27;6.83;;;14.00;99.90;;;;;;5047940;28;20416;-76
2023/05/12 07:46:56;;;;;;;7.93;6.33;;;14.00;99.90;;;;;;5045063;28;20653;-76
2023/05/12 07:49:43;;;;;;;6.43;5.80;;;14.00;99.90;;;;;;5046711;28;20517;-75
2023/05/12 07:52:28;;;;;;;9.30;6.70;;;14.10;99.90;;;;;;5046789;28;20583;-74
2023/05/12 07:55:14;;;;;;;9.53;6.60;;;14.20;99.90;;;;;;5046385;28;20441;-75
2023/05/12 07:57:59;;;;;;;9.70;6.20;;;14.20;99.90;;;;;;5046421;28;20460;-75
2023/05/12 08:00:45;;;;;;;8.27;6.63;;;14.20;99.90;;;;;;5047475;28;20793;-75
2023/05/12 08:03:31;;;;;;;6.80;5.87;;;14.20;99.90;;;;;;5045527;28;20786;-74
2023/05/12 08:06:18;;;;;;;7.27;6.17;;;14.30;99.90;;;;;;5047452;28;20472;-75
2023/05/12 08:09:03;;;;;;;6.87;6.17;;;14.30;99.90;;;;;;5045643;28;20973;-74
2023/05/12 08:11:49;;;;;;;8.27;6.43;;;14.30;99.90;;;;;;5039573;28;20556;-74
2023/05/12 08:14:34;;;;;;;6.60;5.40;;;14.40;99.90;;;;;;5046695;28;20928;-75
2023/05/12 08:17:20;;;;;;;10.13;6.13;;;14.40;99.90;;;;;;5044731;28;20440;-75
2023/05/12 08:20:07;;;;;;;15.33;6.43;;;14.50;99.90;;;;;;5048050;28;20620;-73
2023/05/12 08:22:54;;;;;;;6.70;6.00;;;14.50;99.90;;;;;;5033711;28;20576;-75
2023/05/12 08:25:40;;;;;;;9.53;6.70;;;14.60;99.90;;;;;;5044949;28;20994;-73
2023/05/12 08:28:25;;;;;;;6.70;5.70;;;14.60;99.90;;;;;;5046482;28;20460;-74
2023/05/12 08:31:11;;;;;;;11.63;6.13;;;14.70;99.90;;;;;;5040596;28;20487;-75
2023/05/12 08:33:57;;;;;;;6.37;5.77;;;14.70;99.90;;;;;;5049086;28;20435;-74
2023/05/12 08:36:43;;;;;;;6.90;6.10;;;14.70;99.90;;;;;;5048314;28;20527;-76
2023/05/12 08:39:30;;;;;;;11.30;5.87;;;14.70;99.90;;;;;;5067160;28;20435;-74
2023/05/12 08:42:30;;;;;;;11.20;5.23;;;14.80;99.90;;;;;;5045599;28;20474;-75
2023/05/12 08:45:15;;;;;;;6.53;5.27;;;14.90;99.90;;;;;;5052458;28;20857;-74
2023/05/12 08:48:02;;;;;;;5.93;4.80;;;14.80;99.90;;;;;;5050767;28;20411;-74
2023/05/12 08:50:51;;;;;;;6.40;5.50;;;14.90;99.90;;;;;;5045782;28;20493;-72
2023/05/12 08:53:37;;;;;;;6.67;5.80;;;15.10;99.90;;;;;;5056384;28;20411;-73
2023/05/12 08:56:24;;;;;;;7.27;4.90;;;15.10;99.90;;;;;;5031514;28;20588;-73
2023/05/12 08:59:10;;;;;;;6.93;4.63;;;15.10;99.90;;;;;;5041581;28;20751;-73
2023/05/12 09:01:57;;;;;;;5.77;5.10;;;15.10;99.90;;;;;;5038489;28;20939;-73
2023/05/12 09:04:42;;;;;;;7.03;5.00;;;15.20;99.90;;;;;;5042518;28;20540;-73
2023/05/12 09:07:28;;;;;;;6.37;5.27;;;15.20;99.90;;;;;;5052590;28;20529;-73
2023/05/12 09:10:16;;;;;;;5.13;4.63;;;15.20;99.90;;;;;;5043382;28;20920;-71
2023/05/12 09:13:12;;;;;;;5.77;4.57;;;15.20;99.90;;;;;;5048143;28;20462;-73
2023/05/12 09:16:01;;;;;;;5.20;4.40;;;15.30;99.90;;;;;;5056127;28;20589;-74
2023/05/12 09:18:50;;;;;;;6.17;4.37;;;15.20;99.90;;;;;;5048786;28;20448;-74
2023/05/12 09:21:36;;;;;;;9.73;4.50;;;15.20;99.90;;;;;;5041210;28;20531;-73
2023/05/12 09:24:21;;;;;;;6.90;4.40;;;15.20;99.90;;;;;;5052050;28;20504;-73
2023/05/12 09:27:07;;;;;;;6.27;4.80;;;15.10;99.90;;;;;;5073903;23;21045;-74
2023/05/12 09:29:54;;;;;;;9.03;5.57;;;15.00;99.90;;;;;;5067122;28;20481;-73
2023/05/12 09:32:40;;;;;;;6.30;5.20;;;14.90;99.90;;;;;;5061032;28;20793;-70
2023/05/12 09:35:25;;;;;;;6.33;4.80;;;14.80;99.90;;;;;;5068109;28;20442;-73
2023/05/12 09:38:13;;;;;;;11.60;6.07;;;14.80;99.90;;;;;;5041782;28;20416;-75
2023/05/12 09:40:58;;;;;;;5.73;4.97;;;14.70;99.90;;;;;;5039020;28;20416;-75
2023/05/12 09:43:47;;;;;;;7.03;4.80;;;14.70;99.90;;;;;;5055016;28;20427;-75
2023/05/12 09:46:33;;;;;;;5.70;5.10;;;14.70;99.90;;;;;;5058501;28;20477;-75
2023/05/12 09:49:20;;;;;;;5.20;4.70;;;14.70;99.90;;;;;;5057480;28;20435;-75
2023/05/12 09:52:06;;;;;;;8.20;5.90;;;14.70;99.90;;;;;;5054927;28;20803;-75
2023/05/12 09:54:52;;;;;;;5.20;4.63;;;14.80;99.90;;;;;;5046188;28;20535;-74
2023/05/12 09:57:40;;;;;;;5.23;4.73;;;14.90;99.90;;;;;;5067135;28;20606;-73
2023/05/12 10:00:25;;;;;;;6.30;5.63;;;14.90;99.90;;;;;;5058864;28;20425;-73
2023/05/12 10:03:14;;;;;;;6.23;5.60;;;15.00;99.90;;;;;;5061185;28;20490;-71
2023/05/12 10:06:02;;;;;;;7.90;5.50;;;15.10;99.90;;;;;;5042420;28;20772;-74
2023/05/12 10:08:52;;;;;;;6.97;5.60;;;15.10;99.90;;;;;;5047473;28;20504;-69
2023/05/12 10:11:38;;;;;;;6.83;5.23;;;15.30;99.90;;;;;;5041916;28;20467;-73
2023/05/12 10:14:24;;;;;;;7.93;5.00;;;15.40;99.90;;;;;;5055392;28;20438;-72
2023/05/12 10:17:11;;;;;;;7.00;4.93;;;15.50;99.90;;;;;;5040784;28;20445;-73
2023/05/12 10:19:58;;;;;;;6.93;5.60;;;15.60;99.90;;;;;;5044858;28;20565;-74
2023/05/12 10:22:44;;;;;;;7.03;4.77;;;15.60;99.90;;;;;;5042839;28;20897;-72
2023/05/12 10:25:30;;;;;;;5.80;5.20;;;15.60;99.90;;;;;;5041600;28;20429;-73
2023/05/12 10:28:16;;;;;;;11.00;4.87;;;15.70;99.90;;;;;;5048497;28;20427;-74
2023/05/12 10:31:03;;;;;;;6.07;5.10;;;15.60;99.90;;;;;;5050056;28;20519;-70
2023/05/12 10:33:56;;;;;;;8.10;5.13;;;15.60;99.90;;;;;;5059739;28;20439;-73
2023/05/12 10:36:49;;;;;;;6.77;5.30;;;15.60;99.90;;;;;;5056582;28;20555;-74
2023/05/12 10:39:34;;;;;;;7.00;5.03;;;15.60;99.90;;;;;;5041511;28;20461;-74
2023/05/12 10:42:24;;;;;;;6.80;5.50;;;15.60;99.90;;;;;;5045290;28;20445;-75
2023/05/12 10:45:19;;;;;;;6.50;5.10;;;15.70;99.90;;;;;;5040798;28;20478;-74
2023/05/12 10:48:07;;;;;;;17.60;5.37;;;15.80;99.90;;;;;;5038584;28;20459;-73
2023/05/12 10:50:55;;;;;;;5.83;5.20;;;15.90;99.90;;;;;;5040458;28;21350;-72
2023/05/12 10:53:45;;;;;;;5.30;4.80;;;16.00;99.90;;;;;;5044625;28;20439;-74
2023/05/12 10:56:41;;;;;;;8.40;4.83;;;16.00;99.90;;;;;;5045719;28;20810;-74
2023/05/12 10:59:27;;;;;;;8.40;5.13;;;16.10;99.90;;;;;;5048934;28;20510;-71
2023/05/12 11:02:16;;;;;;;7.47;4.83;;;16.10;99.90;;;;;;5034188;28;21034;-74
2023/05/12 11:05:04;;;;;;;6.40;4.80;;;16.20;99.90;;;;;;5040698;28;20446;-74
2023/05/12 11:07:49;;;;;;;7.37;4.37;;;16.30;99.90;;;;;;5040529;28;20451;-74
2023/05/12 11:10:37;;;;;;;9.00;4.63;;;16.30;99.90;;;;;;5043448;28;20470;-71
2023/05/12 11:13:22;;;;;;;8.27;5.00;;;16.40;99.90;;;;;;5042926;28;20988;-70
2023/05/12 11:16:12;;;;;;;6.97;5.73;;;16.50;99.90;;;;;;5043197;28;20613;-74
2023/05/12 11:19:01;;;;;;;5.73;4.30;;;16.60;99.90;;;;;;5037858;28;20450;-73
2023/05/12 11:21:48;;;;;;;9.63;4.37;;;16.70;99.90;;;;;;5041178;28;20448;-74
2023/05/12 11:24:33;;;;;;;7.00;4.93;;;16.70;99.90;;;;;;5043843;28;20457;-73
2023/05/12 11:27:22;;;;;;;7.37;4.37;;;16.70;99.90;;;;;;5050089;28;20463;-73
2023/05/12 11:30:09;;;;;;;5.53;4.60;;;16.80;99.90;;;;;;5043648;28;20575;-74
2023/05/12 11:33:01;;;;;;;4.10;3.70;;;16.70;99.90;;;;;;5042737;28;20424;-73
2023/05/12 11:35:47;;;;;;;5.60;4.30;;;16.60;99.90;;;;;;5039963;28;20628;-73
2023/05/12 11:38:32;;;;;;;5.37;3.77;;;16.60;99.90;;;;;;5052007;28;20491;-74
2023/05/12 11:41:25;;;;;;;6.50;4.50;;;16.60;99.90;;;;;;5043840;28;20416;-74
2023/05/12 11:44:16;;;;;;;7.50;4.00;;;16.60;99.90;;;;;;5045521;28;20453;-74
2023/05/12 11:47:11;;;;;;;6.90;5.00;;;16.50;99.90;;;;;;5048706;28;20458;-74
2023/05/12 11:49:56;;;;;;;5.53;4.70;;;16.40;99.90;;;;;;5044362;28;20499;-73
2023/05/12 11:52:41;;;;;;;5.17;4.57;;;16.40;99.90;;;;;;5039563;28;20945;-74
2023/05/12 11:55:27;;;;;;;4.77;3.90;;;16.30;99.90;;;;;;5045160;28;20421;-70
2023/05/12 11:58:19;;;;;;;8.17;4.70;;;16.20;99.90;;;;;;5048262;28;20434;-71
2023/05/12 12:01:10;;;;;;;5.87;4.30;;;16.20;99.90;;;;;;5041272;28;20986;-70
2023/05/12 12:03:55;;;;;;;9.63;4.43;;;16.20;99.90;;;;;;5043683;28;20534;-74
2023/05/12 12:06:45;;;;;;;5.33;4.30;;;16.20;99.90;;;;;;5047559;28;21093;-74
2023/05/12 12:09:32;;;;;;;11.33;4.23;;;16.10;99.90;;;;;;5044302;28;20453;-70
2023/05/12 12:12:17;;;;;;;5.30;4.10;;;16.10;99.90;;;;;;5041439;28;20449;-74
2023/05/12 12:15:03;;;;;;;7.70;3.97;;;16.10;99.90;;;;;;5035390;28;20479;-73
2023/05/12 12:17:50;;;;;;;10.17;3.83;;;16.10;99.90;;;;;;5043347;28;20502;-74
2023/05/12 12:20:36;;;;;;;5.23;3.87;;;16.00;99.90;;;;;;5045414;28;20573;-74
2023/05/12 12:23:22;;;;;;;4.30;3.90;;;15.90;99.90;;;;;;5055575;28;20445;-72
2023/05/12 12:26:07;;;;;;;13.47;4.67;;;15.90;99.90;;;;;;5060827;28;20463;-74
2023/05/12 12:28:53;;;;;;;15.93;5.17;;;15.80;99.90;;;;;;5063865;28;20967;-73
2023/05/12 12:31:39;;;;;;;4.70;4.00;;;15.80;99.90;;;;;;5054890;28;20445;-74
2023/05/12 12:34:26;;;;;;;6.73;4.00;;;15.80;99.90;;;;;;5041970;28;20439;-75
2023/05/12 12:37:12;;;;;;;11.07;4.10;;;15.80;99.90;;;;;;5049106;28;21098;-74
2023/05/12 12:39:57;;;;;;;5.73;4.17;;;15.80;99.90;;;;;;5059778;28;20773;-69
2023/05/12 12:42:42;;;;;;;6.30;4.57;;;15.80;99.90;;;;;;5065337;28;20458;-73
2023/05/12 12:45:28;;;;;;;6.47;4.53;;;15.70;99.90;;;;;;5066858;28;20423;-70
2023/05/12 12:48:17;;;;;;;4.40;3.67;;;15.70;99.90;;;;;;5063872;28;20526;-73
2023/05/12 12:51:04;;;;;;;4.97;4.13;;;15.70;99.90;;;;;;5053666;28;20526;-73
2023/05/12 12:53:49;;;;;;;14.33;4.77;;;15.80;99.90;;;;;;5051619;28;20452;-72
2023/05/12 12:56:35;;;;;;;5.33;3.93;;;15.80;99.90;;;;;;5049588;28;20526;-73
2023/05/12 12:59:20;;;;;;;7.20;4.90;;;15.80;99.90;;;;;;5040869;28;20445;-74
2023/05/12 13:02:07;;;;;;;5.67;4.33;;;15.90;99.90;;;;;;5048561;28;20424;-73
2023/05/12 13:04:52;;;;;;;6.90;4.70;;;16.00;99.90;;;;;;5056074;28;20585;-74
2023/05/12 13:07:40;;;;;;;5.03;4.30;;;16.00;99.90;;;;;;5050345;28;20423;-74
2023/05/12 13:10:25;;;;;;;5.43;3.60;;;16.20;99.90;;;;;;5049970;28;20424;-73
2023/05/12 13:13:11;;;;;;;9.70;3.70;;;16.20;99.90;;;;;;5064290;28;20404;-74
2023/05/12 13:15:56;;;;;;;4.93;3.50;;;16.20;99.90;;;;;;5060671;28;20992;-72
2023/05/12 13:18:42;;;;;;;5.47;3.83;;;16.30;99.90;;;;;;5057966;28;20536;-74
2023/05/12 13:21:27;;;;;;;6.63;4.90;;;16.40;99.90;;;;;;5047121;28;20634;-74
2023/05/12 13:24:14;;;;;;;8.23;3.73;;;16.50;99.90;;;;;;5040620;28;20826;-74
2023/05/12 13:27:00;;;;;;;5.07;4.57;;;16.50;99.90;;;;;;5043881;28;20473;-74
2023/05/12 13:29:46;;;;;;;13.60;4.40;;;16.50;99.90;;;;;;5036531;28;20418;-74
2023/05/12 13:32:32;;;;;;;7.63;3.47;;;16.50;99.90;;;;;;5038200;28;20478;-74
2023/05/12 13:35:17;;;;;;;4.20;3.30;;;16.50;99.90;;;;;;5036151;28;20446;-74
2023/05/12 13:38:03;;;;;;;6.60;2.97;;;16.50;99.90;;;;;;5045873;28;20448;-75
2023/05/12 13:40:50;;;;;;;3.57;3.10;;;16.60;99.90;;;;;;5041644;28;20472;-75
2023/05/12 13:43:36;;;;;;;3.40;2.63;;;16.60;99.90;;;;;;5049067;28;20399;-72
2023/05/12 13:46:21;;;;;;;4.70;3.00;;;16.70;99.90;;;;;;5050882;28;20523;-75
2023/05/12 13:49:06;;;;;;;2.53;2.27;;;16.70;99.90;;;;;;5061001;28;20424;-71
2023/05/12 13:51:52;;;;;;;4.47;3.10;;;16.70;99.90;;;;;;5042028;28;20499;-74
2023/05/12 13:54:37;;;;;;;3.30;2.47;;;16.80;99.90;;;;;;5059306;28;20396;-75
2023/05/12 13:57:24;;;;;;;3.90;2.30;;;16.80;99.90;;;;;;5048534;28;21054;-75
2023/05/12 14:00:12;;;;;;;4.73;2.00;;;16.80;99.90;;;;;;5053898;28;20954;-73
2023/05/12 14:02:57;;;;;;;2.20;1.50;;;16.80;99.90;;;;;;5057205;28;20416;-75
2023/05/12 14:05:43;;;;;;;2.10;1.57;;;16.80;99.90;;;;;;5043325;28;20580;-74
2023/05/12 14:08:28;;;;;;;4.10;2.10;;;16.70;99.90;;;;;;5055790;28;20441;-72
2023/05/12 14:11:14;;;;;;;2.00;1.50;;;16.70;99.90;;;;;;5046579;28;21137;-75
2023/05/12 14:14:02;;;;;;;3.30;1.97;;;16.60;99.90;;;;;;5054499;28;20986;-75
2023/05/12 14:16:47;;;;;;;2.50;1.53;;;16.50;99.90;;;;;;5044339;28;20518;-74
2023/05/12 14:19:34;;;;;;;3.27;1.70;;;16.50;99.90;;;;;;5051105;28;20883;-69